Time;durP1;ratioP1;P1;durP2;ratioP2;P2;SDS_P1;SDS_P2;PMS_P1;PMS_P2;Temp;Humidity;BMP_temperature;BMP_pressure;BME280_temperature;BME280_humidity;BME280_pressure;Samples;Min_cycle;Max_cycle;Signal;HPM_P1;HPM_P2
2021/01/30 00:01:57;;;;;;;2.40;1.73;;;;;;;4.99;100.00;96167.06;3712330;78;44045;-21
2021/01/30 00:07:04;;;;;;;3.23;1.90;;;;;;;4.89;100.00;96176.64;3711822;79;44066;-21
2021/01/30 00:12:10;;;;;;;4.00;1.80;;;;;;;4.82;100.00;96157.86;3695951;78;44355;-21
2021/01/30 00:17:16;;;;;;;4.60;2.17;;;;;;;4.80;100.00;96151.87;3712262;79;43176;-21
2021/01/30 00:22:22;;;;;;;6.43;2.10;;;;;;;4.80;100.00;96151.87;3714641;78;43677;-21
2021/01/30 00:27:28;;;;;;;2.50;1.67;;;;;;;4.85;100.00;96141.50;3728707;77;1010255;-21
2021/01/30 00:32:34;;;;;;;2.70;1.80;;;;;;;4.83;100.00;96139.52;3752135;77;44059;-20
2021/01/30 00:37:42;;;;;;;2.63;2.40;;;;;;;4.78;100.00;96144.06;3741190;77;44039;-20
2021/01/30 00:42:48;;;;;;;3.63;1.60;;;;;;;4.78;100.00;96147.22;3750851;77;44067;-21
2021/01/30 00:47:54;;;;;;;5.00;1.83;;;;;;;4.81;100.00;96146.05;3741415;79;42756;-20
2021/01/30 00:53:00;;;;;;;3.07;1.67;;;;;;;4.80;100.00;96142.54;3750250;77;43709;-20
2021/01/30 00:58:08;;;;;;;3.50;1.57;;;;;;;4.83;100.00;96129.34;3702641;78;26929;-21
2021/01/30 01:03:15;;;;;;;1.83;1.20;;;;;;;4.90;100.00;96137.77;3710158;79;43432;-21
2021/01/30 01:08:32;;;;;;;3.30;1.20;;;;;;;5.04;100.00;96142.82;3703253;78;26389;-21
2021/01/30 01:13:38;;;;;;;1.80;1.10;;;;;;;5.16;100.00;96147.70;3701327;78;43027;-20
2021/01/30 01:18:45;;;;;;;1.70;1.30;;;;;;;5.31;100.00;96153.85;3705986;79;43424;-21
2021/01/30 01:23:50;;;;;;;1.40;1.30;;;;;;;5.42;100.00;96167.27;3710230;79;44730;-21
2021/01/30 01:28:57;;;;;;;1.80;1.37;;;;;;;5.47;100.00;96163.52;3615991;82;44057;-21
2021/01/30 01:34:02;;;;;;;2.87;1.30;;;;;;;5.46;100.00;96166.38;3614944;82;43615;-21
2021/01/30 01:39:08;;;;;;;2.50;1.40;;;;;;;5.39;100.00;96178.30;3613546;81;44716;-22
2021/01/30 01:44:14;;;;;;;1.57;1.40;;;;;;;5.22;100.00;96180.32;3591218;81;43074;-22
2021/01/30 01:49:23;;;;;;;4.23;1.80;;;;;;;5.22;100.00;96193.67;3616310;81;44541;-23
2021/01/30 01:54:31;;;;;;;2.87;1.90;;;;;;;5.09;100.00;96179.62;3619328;80;43737;-23
2021/01/30 01:59:43;;;;;;;2.30;2.07;;;;;;;5.15;100.00;96192.75;3634457;80;42994;-22
2021/01/30 02:04:53;;;;;;;2.60;1.93;;;;;;;5.03;100.00;96195.86;3676417;80;44376;-23
2021/01/30 02:09:59;;;;;;;4.07;2.40;;;;;;;5.04;100.00;96187.34;3640299;80;43702;-23
2021/01/30 02:15:07;;;;;;;3.13;2.00;;;;;;;5.11;100.00;96193.62;3679494;80;44071;-22
2021/01/30 02:21:00;;;;;;;2.67;2.03;;;;;;;5.15;100.00;96204.23;3605770;80;43407;-22
2021/01/30 02:26:39;;;;;;;2.40;1.67;;;;;;;5.12;100.00;96215.27;3677198;79;43698;-22
2021/01/30 02:31:51;;;;;;;2.73;1.57;;;;;;;5.13;100.00;96205.44;3663006;80;44087;-22
2021/01/30 02:37:00;;;;;;;1.73;1.33;;;;;;;5.12;100.00;96230.47;3677259;79;44227;-22
2021/01/30 02:42:10;;;;;;;2.00;1.20;;;;;;;5.14;100.00;96203.09;3677451;79;43465;-22
2021/01/30 02:47:18;;;;;;;2.83;1.57;;;;;;;5.14;100.00;96219.11;3659082;80;44071;-22
2021/01/30 02:52:27;;;;;;;1.70;1.50;;;;;;;5.22;100.00;96215.02;3681124;79;44691;-22
2021/01/30 02:57:33;;;;;;;3.10;1.80;;;;;;;5.20;100.00;96211.70;3674816;79;44075;-22
2021/01/30 03:02:40;;;;;;;3.00;2.23;;;;;;;5.20;100.00;96215.21;3739956;77;43495;-22
2021/01/30 03:07:59;;;;;;;5.33;2.67;;;;;;;5.12;100.00;96232.62;3746069;77;44006;-22
2021/01/30 03:13:12;;;;;;;4.40;2.80;;;;;;;5.11;100.00;96227.47;3738924;77;44056;-22
2021/01/30 03:18:21;;;;;;;5.53;2.87;;;;;;;5.01;100.00;96240.57;3738019;77;43729;-22
2021/01/30 03:23:28;;;;;;;5.10;3.00;;;;;;;4.96;100.00;96262.95;3750770;79;43350;-23
2021/01/30 03:28:34;;;;;;;3.93;2.50;;;;;;;4.94;100.00;96258.29;3745142;78;44404;-22
2021/01/30 03:33:40;;;;;;;4.07;2.87;;;;;;;4.80;100.00;96257.23;3735377;77;42486;-22
2021/01/30 03:38:46;;;;;;;6.03;3.60;;;;;;;4.61;100.00;96299.88;3743234;77;44090;-24
2021/01/30 03:43:52;;;;;;;1.23;1.10;;;;;;;4.26;100.00;96301.58;3741929;79;44180;-25
2021/01/30 03:48:58;;;;;;;0.90;0.80;;;;;;;3.37;100.00;96326.45;3743566;77;44054;-25
2021/01/30 03:54:05;;;;;;;0.60;0.57;;;;;;;2.55;100.00;96351.16;3735810;79;43095;-25
2021/01/30 03:59:11;;;;;;;3.03;2.00;;;;;;;2.07;100.00;96364.08;3717660;79;44711;-25
2021/01/30 04:04:17;;;;;;;7.30;3.60;;;;;;;1.25;100.00;96396.71;3721098;78;43753;-25
2021/01/30 04:09:23;;;;;;;7.17;5.53;;;;;;;0.47;100.00;96409.54;3722789;78;44608;-25
2021/01/30 04:14:29;;;;;;;10.40;7.23;;;;;;;-0.05;100.00;96425.92;3706754;78;43461;-25
2021/01/30 04:19:35;;;;;;;10.93;7.33;;;;;;;-0.34;100.00;96444.87;3717850;78;43998;-24
2021/01/30 04:24:44;;;;;;;12.87;8.17;;;;;;;-0.76;100.00;96469.46;3724850;79;44069;-24
2021/01/30 04:29:48;;;;;;;12.10;7.33;;;;;;;-1.06;100.00;96506.93;3716027;79;44183;-24
2021/01/30 04:34:54;;;;;;;13.80;9.13;;;;;;;-1.39;100.00;96500.51;3713855;79;43407;-23
2021/01/30 04:40:00;;;;;;;15.00;10.00;;;;;;;-1.26;100.00;96508.18;3713546;78;43978;-23
2021/01/30 04:45:11;;;;;;;18.97;11.33;;;;;;;-1.36;100.00;96518.73;3711864;78;43468;-22
2021/01/30 04:50:20;;;;;;;15.57;9.57;;;;;;;-1.27;100.00;96543.02;3714021;78;44217;-22
2021/01/30 04:55:37;;;;;;;18.43;10.83;;;;;;;-1.70;100.00;96561.22;3632852;80;44219;-22
2021/01/30 05:00:52;;;;;;;18.30;10.77;;;;;;;-1.80;100.00;96583.62;3615698;80;44019;-21
2021/01/30 05:06:02;;;;;;;18.40;11.03;;;;;;;-1.83;100.00;96581.73;3512472;82;43306;-21
2021/01/30 05:11:11;;;;;;;16.93;10.73;;;;;;;-1.80;100.00;96599.46;3615501;81;44082;-20
2021/01/30 05:16:22;;;;;;;19.03;11.07;;;;;;;-1.81;100.00;96620.22;3600296;81;43252;-20
2021/01/30 05:21:36;;;;;;;19.10;12.07;;;;;;;-1.95;100.00;96632.41;3612763;80;44034;-20
2021/01/30 05:26:48;;;;;;;22.70;12.30;;;;;;;-1.86;100.00;96636.45;3608798;81;44072;-20
2021/01/30 05:31:57;;;;;;;22.07;11.37;;;;;;;-1.83;100.00;96643.77;3599196;82;44149;-20
2021/01/30 05:37:07;;;;;;;21.87;12.63;;;;;;;-1.65;100.00;96643.53;3588969;81;44422;-20
2021/01/30 05:42:19;;;;;;;21.20;12.03;;;;;;;-1.68;100.00;96662.26;3601450;81;44468;-19
2021/01/30 05:47:28;;;;;;;19.77;11.87;;;;;;;-2.05;100.00;96681.13;3562844;82;42863;-19
2021/01/30 05:52:37;;;;;;;20.60;11.83;;;;;;;-2.14;100.00;96662.11;3550846;82;44493;-19
2021/01/30 05:57:43;;;;;;;20.00;11.90;;;;;;;-2.27;100.00;96678.92;3560235;81;44400;-19
2021/01/30 06:03:04;;;;;;;22.40;11.93;;;;;;;-2.26;100.00;96683.24;3664735;80;44042;-18
2021/01/30 06:08:15;;;;;;;19.30;11.00;;;;;;;-2.28;100.00;96706.76;3604038;81;43415;-18
2021/01/30 06:13:24;;;;;;;22.77;12.23;;;;;;;-2.49;100.00;96729.94;3748005;77;44006;-19
2021/01/30 06:18:37;;;;;;;22.07;12.37;;;;;;;-2.38;100.00;96723.79;3742316;79;43310;-18
2021/01/30 06:23:48;;;;;;;22.80;12.80;;;;;;;-2.37;100.00;96746.56;3747660;79;43007;-18
2021/01/30 06:29:01;;;;;;;23.00;12.50;;;;;;;-2.36;100.00;96743.83;3737345;77;43002;-18
2021/01/30 06:34:21;;;;;;;22.60;12.17;;;;;;;-2.48;100.00;96770.67;3741927;77;43741;-18
2021/01/30 06:39:30;;;;;;;23.43;12.23;;;;;;;-2.40;100.00;96766.58;3742336;79;43648;-18
2021/01/30 06:44:39;;;;;;;20.73;11.00;;;;;;;-2.40;100.00;96769.22;3741866;77;42975;-18
2021/01/30 06:49:47;;;;;;;21.40;11.47;;;;;;;-2.41;100.00;96780.75;3749113;79;43421;-19
2021/01/30 06:55:12;;;;;;;17.47;9.73;;;;;;;-2.38;100.00;96805.54;3738929;79;44078;-18
2021/01/30 07:00:31;;;;;;;18.10;9.90;;;;;;;-2.50;100.00;96823.17;3741488;77;43873;-19
2021/01/30 07:05:54;;;;;;;17.77;10.03;;;;;;;-2.46;100.00;96833.00;3676139;79;43436;-19
2021/01/30 07:11:06;;;;;;;16.87;10.03;;;;;;;-2.51;100.00;96834.19;3653322;80;44571;-18
2021/01/30 07:16:22;;;;;;;18.63;9.87;;;;;;;-2.45;100.00;96838.64;3696457;79;43463;-19
2021/01/30 07:21:31;;;;;;;16.47;9.80;;;;;;;-2.50;100.00;96833.72;3661890;80;43481;-18
2021/01/30 07:26:42;;;;;;;16.67;8.70;;;;;;;-2.52;100.00;96854.09;3678995;80;43673;-18
2021/01/30 07:31:51;;;;;;;16.43;8.73;;;;;;;-2.55;100.00;96853.86;3740701;77;43416;-18
2021/01/30 07:37:00;;;;;;;16.50;9.67;;;;;;;-2.51;100.00;96853.96;3750955;77;43540;-18
2021/01/30 07:42:09;;;;;;;16.50;9.20;;;;;;;-2.45;100.00;96876.87;3752985;77;42924;-18
2021/01/30 07:47:18;;;;;;;17.40;9.13;;;;;;;-2.29;100.00;96865.48;3750425;77;43985;-19
2021/01/30 07:52:27;;;;;;;16.03;9.47;;;;;;;-2.26;100.00;96874.48;3758795;79;43128;-18
2021/01/30 07:58:20;;;;;;;17.13;9.10;;;;;;;-2.24;100.00;96894.98;3753934;79;44110;-18
2021/01/30 08:03:54;;;;;;;16.83;8.80;;;;;;;-2.32;100.00;96892.11;3751195;77;43681;-18
2021/01/30 08:09:04;;;;;;;15.27;8.70;;;;;;;-2.27;100.00;96885.16;3750818;77;44255;-18
2021/01/30 08:14:33;;;;;;;16.40;9.10;;;;;;;-2.33;100.00;96889.94;3742964;77;43790;-18
2021/01/30 08:19:43;;;;;;;20.37;10.03;;;;;;;-2.35;100.00;96897.62;3753729;77;43401;-18
2021/01/30 08:24:55;;;;;;;18.37;9.93;;;;;;;-2.40;100.00;96896.66;3749758;79;43275;-18
2021/01/30 08:30:06;;;;;;;18.80;10.10;;;;;;;-2.35;100.00;96905.03;3749811;79;43692;-17
2021/01/30 08:35:47;;;;;;;21.93;11.10;;;;;;;-2.43;100.00;96896.06;3752108;77;44026;-18
2021/01/30 08:40:55;;;;;;;19.50;9.93;;;;;;;-2.42;100.00;96920.98;3749776;79;43634;-19
2021/01/30 08:46:24;;;;;;;21.33;10.90;;;;;;;-2.47;100.00;96919.20;3750228;77;43229;-19
2021/01/30 08:51:31;;;;;;;20.57;10.40;;;;;;;-2.32;100.00;96916.68;3749254;77;43208;-19
2021/01/30 08:56:52;;;;;;;20.63;10.67;;;;;;;-2.38;100.00;96928.17;3751191;77;44059;-19
2021/01/30 09:01:58;;;;;;;21.67;11.17;;;;;;;-2.32;100.00;96933.00;3746305;78;44028;-19
2021/01/30 09:07:05;;;;;;;23.83;10.43;;;;;;;-2.29;100.00;96936.70;3743111;77;43602;-19
2021/01/30 09:12:12;;;;;;;24.10;11.23;;;;;;;-2.21;100.00;96934.33;3743039;77;43390;-19
2021/01/30 09:17:42;;;;;;;24.00;12.13;;;;;;;-2.22;100.00;96941.88;3745044;78;43416;-19
2021/01/30 09:23:01;;;;;;;24.10;12.07;;;;;;;-2.13;100.00;96933.75;3751054;77;43683;-20
2021/01/30 09:28:10;;;;;;;25.13;12.00;;;;;;;-2.08;100.00;96938.66;3744466;77;44089;-19
2021/01/30 09:33:19;;;;;;;26.70;12.77;;;;;;;-2.06;100.00;96940.70;3746704;79;43197;-19
2021/01/30 09:38:29;;;;;;;22.87;11.57;;;;;;;-2.00;100.00;96938.90;3760395;77;44051;-19
2021/01/30 09:43:35;;;;;;;25.30;12.33;;;;;;;-2.06;100.00;96939.39;3758834;78;43538;-19
2021/01/30 09:48:43;;;;;;;23.47;11.93;;;;;;;-2.21;100.00;96935.66;3757547;79;43690;-19
2021/01/30 09:53:54;;;;;;;22.97;10.87;;;;;;;-2.09;100.00;96940.45;3755960;77;43694;-19
2021/01/30 09:59:02;;;;;;;20.47;9.90;;;;;;;-2.05;100.00;96942.36;3620391;80;42907;-19
2021/01/30 10:04:22;;;;;;;20.90;10.27;;;;;;;-1.98;100.00;96938.77;3635807;80;43369;-19
2021/01/30 10:09:28;;;;;;;17.77;8.70;;;;;;;-2.05;100.00;96939.72;3731278;79;43428;-19
2021/01/30 10:14:39;;;;;;;20.20;9.73;;;;;;;-1.87;100.00;96939.63;3643225;80;44422;-19
2021/01/30 10:19:45;;;;;;;27.00;11.40;;;;;;;-1.64;100.00;96934.33;3673313;81;43718;-19
2021/01/30 10:24:53;;;;;;;22.47;10.97;;;;;;;-1.63;100.00;96932.52;3674659;80;43643;-19
2021/01/30 10:30:00;;;;;;;21.37;10.53;;;;;;;-1.84;100.00;96937.22;3625117;80;44054;-19
2021/01/30 10:35:09;;;;;;;23.77;11.03;;;;;;;-1.69;100.00;96951.00;3665759;80;44521;-19
2021/01/30 10:40:20;;;;;;;21.43;10.63;;;;;;;-1.57;100.00;96946.08;3664573;81;43685;-19
2021/01/30 10:45:30;;;;;;;21.00;10.90;;;;;;;-1.64;100.00;96960.73;3666452;80;44154;-19
2021/01/30 10:50:38;;;;;;;21.33;11.33;;;;;;;-1.69;100.00;96967.34;3669177;81;44052;-19
2021/01/30 10:55:44;;;;;;;17.53;9.13;;;;;;;-1.72;100.00;96966.61;3673200;80;43498;-19
2021/01/30 11:01:00;;;;;;;16.43;8.73;;;;;;;-1.71;100.00;96966.15;3661046;80;44116;-19
2021/01/30 11:06:15;;;;;;;16.90;9.13;;;;;;;-1.71;100.00;96968.79;3718058;78;43727;-19
2021/01/30 11:11:28;;;;;;;18.20;9.07;;;;;;;-1.92;100.00;96968.66;3712919;79;43423;-18
2021/01/30 11:16:41;;;;;;;16.00;9.20;;;;;;;-1.81;100.00;96959.89;3697697;78;43567;-19
2021/01/30 11:21:48;;;;;;;23.10;10.87;;;;;;;-1.58;100.00;96968.16;3721294;79;43304;-18
2021/01/30 11:26:54;;;;;;;20.30;10.57;;;;;;;-1.51;100.00;96960.59;3731113;78;43312;-19
2021/01/30 11:32:02;;;;;;;18.03;9.00;;;;;;;-1.44;100.00;96958.30;3706464;79;44144;-19
2021/01/30 11:37:09;;;;;;;21.47;9.57;;;;;;;-1.59;100.00;96964.33;3713329;78;43999;-19
2021/01/30 11:42:15;;;;;;;17.90;9.40;;;;;;;-1.52;100.00;96959.41;3711316;79;43471;-18
2021/01/30 11:47:21;;;;;;;18.97;9.83;;;;;;;-1.46;100.00;96951.83;3694627;78;44049;-18
2021/01/30 11:52:29;;;;;;;19.30;9.57;;;;;;;-1.59;100.00;96953.27;3699862;78;43478;-19
2021/01/30 11:57:35;;;;;;;16.63;8.67;;;;;;;-1.48;100.00;96938.41;3711070;79;44025;-19
2021/01/30 12:02:43;;;;;;;17.90;9.60;;;;;;;-1.60;100.00;96937.09;3724596;78;43983;-20
2021/01/30 12:07:49;;;;;;;16.73;9.00;;;;;;;-1.72;100.00;96945.49;3816163;77;44026;-19
2021/01/30 12:12:55;;;;;;;20.13;10.43;;;;;;;-1.53;100.00;96944.05;3812624;76;43966;-19
2021/01/30 12:18:01;;;;;;;16.50;9.10;;;;;;;-1.60;100.00;96950.77;3817444;76;42830;-19
2021/01/30 12:23:10;;;;;;;16.13;8.40;;;;;;;-1.51;100.00;96941.28;3810849;76;26358;-19
2021/01/30 12:28:19;;;;;;;18.67;9.60;;;;;;;-1.66;100.00;96949.45;3809137;77;43360;-19
2021/01/30 12:33:26;;;;;;;19.03;9.83;;;;;;;-1.67;100.00;96948.27;3814359;76;43991;-19
2021/01/30 12:38:34;;;;;;;19.57;10.37;;;;;;;-1.79;100.00;96942.13;3806053;77;44038;-19
2021/01/30 12:43:40;;;;;;;20.87;10.77;;;;;;;-1.71;100.00;96947.67;3809990;76;43704;-18
2021/01/30 12:48:46;;;;;;;23.33;11.10;;;;;;;-1.60;100.00;96948.12;3811373;76;43685;-19
2021/01/30 12:53:52;;;;;;;22.20;11.17;;;;;;;-1.66;100.00;96941.53;3803330;76;43458;-21
2021/01/30 12:59:00;;;;;;;23.90;11.97;;;;;;;-1.64;100.00;96941.39;3805702;77;44054;-19
2021/01/30 13:04:07;;;;;;;20.13;11.17;;;;;;;-1.60;100.00;96933.59;3818699;76;44004;-19
2021/01/30 13:09:13;;;;;;;24.03;10.83;;;;;;;-1.55;100.00;96940.20;3821412;77;44362;-19
2021/01/30 13:14:20;;;;;;;21.90;11.30;;;;;;;-1.51;100.00;96941.28;3815858;76;43294;-18
2021/01/30 13:19:27;;;;;;;24.97;12.37;;;;;;;-1.62;100.00;96942.98;3815505;77;43543;-18
2021/01/30 13:24:34;;;;;;;24.87;12.23;;;;;;;-1.57;100.00;96944.75;3810109;76;44012;-18
2021/01/30 13:29:41;;;;;;;26.10;13.33;;;;;;;-1.68;100.00;96938.16;3811280;76;43419;-19
2021/01/30 13:34:47;;;;;;;26.97;13.23;;;;;;;-1.62;100.00;96944.30;3803702;76;43392;-18
2021/01/30 13:39:56;;;;;;;21.70;11.87;;;;;;;-1.51;100.00;96938.64;3806292;76;44670;-19
2021/01/30 13:45:08;;;;;;;25.00;12.57;;;;;;;-1.41;100.00;96930.33;3675565;79;44082;-19
2021/01/30 13:50:15;;;;;;;22.73;11.30;;;;;;;-1.38;100.00;96927.45;3805091;77;43698;-19
2021/01/30 13:55:21;;;;;;;22.47;12.10;;;;;;;-1.43;100.00;96925.65;3806794;76;43387;-19
2021/01/30 14:00:29;;;;;;;22.30;11.60;;;;;;;-1.29;100.00;96925.84;3810844;76;43979;-19
2021/01/30 14:05:36;;;;;;;26.07;12.80;;;;;;;-1.27;100.00;96927.42;3808397;76;43376;-19
2021/01/30 14:10:45;;;;;;;23.77;11.80;;;;;;;-1.19;100.00;96927.27;3811038;76;43343;-19
2021/01/30 14:15:51;;;;;;;19.23;10.17;;;;;;;-1.12;100.00;96921.87;3806778;76;43685;-19
2021/01/30 14:20:57;;;;;;;17.73;9.83;;;;;;;-1.16;100.00;96933.14;3806734;77;43979;-19
2021/01/30 14:26:03;;;;;;;20.20;10.63;;;;;;;-1.15;100.00;96931.36;3810846;76;44086;-19
2021/01/30 14:31:11;;;;;;;17.60;10.07;;;;;;;-1.17;100.00;96942.53;3804178;76;44044;-19
2021/01/30 14:36:18;;;;;;;20.00;10.83;;;;;;;-1.12;100.00;96939.05;3796415;76;43426;-19
2021/01/30 14:41:25;;;;;;;16.20;9.23;;;;;;;-1.08;100.00;96945.73;3812174;76;43362;-19
2021/01/30 14:46:33;;;;;;;15.03;8.90;;;;;;;-1.11;100.00;96948.16;3805612;76;43615;-19
2021/01/30 14:51:40;;;;;;;16.23;8.73;;;;;;;-1.18;100.00;96946.98;3817798;77;43678;-19
2021/01/30 14:56:46;;;;;;;15.40;8.93;;;;;;;-1.15;100.00;96956.46;3822641;76;43482;-19
2021/01/30 15:01:53;;;;;;;16.37;9.20;;;;;;;-1.18;100.00;96956.23;3813961;76;44042;-18
2021/01/30 15:06:59;;;;;;;16.33;8.70;;;;;;;-1.16;100.00;96952.14;3814505;76;43427;-19
2021/01/30 15:12:06;;;;;;;14.53;8.17;;;;;;;-1.18;100.00;96954.91;3817286;76;44058;-19
2021/01/30 15:17:12;;;;;;;15.57;8.23;;;;;;;-1.27;100.00;96960.92;3817030;77;43397;-19
2021/01/30 15:22:19;;;;;;;16.73;8.80;;;;;;;-1.20;100.00;96958.16;3818206;76;43326;-19
2021/01/30 15:27:26;;;;;;;16.03;8.70;;;;;;;-1.23;100.00;96963.68;3815684;76;43365;-19
2021/01/30 15:32:32;;;;;;;16.77;8.70;;;;;;;-1.30;100.00;96957.22;3815050;76;44090;-19
2021/01/30 15:37:39;;;;;;;16.67;9.07;;;;;;;-1.45;100.00;96960.58;3816188;76;44022;-19
2021/01/30 15:42:45;;;;;;;16.23;9.03;;;;;;;-1.40;100.00;96959.75;3812257;76;43679;-19
2021/01/30 15:47:51;;;;;;;17.57;9.23;;;;;;;-1.43;100.00;96961.31;3808978;76;44078;-19
2021/01/30 15:53:00;;;;;;;14.77;8.97;;;;;;;-1.41;100.00;96960.70;3811289;76;44027;-19
2021/01/30 15:58:05;;;;;;;16.77;8.80;;;;;;;-1.42;100.00;96956.39;3806551;76;44055;-19
2021/01/30 16:03:13;;;;;;;16.87;9.00;;;;;;;-1.47;100.00;96957.25;3810811;76;44031;-19
2021/01/30 16:08:20;;;;;;;18.37;9.83;;;;;;;-1.46;100.00;96958.91;3814418;76;44039;-19
2021/01/30 16:13:26;;;;;;;15.37;8.70;;;;;;;-1.50;100.00;96968.05;3809704;76;44412;-19
2021/01/30 16:18:32;;;;;;;18.30;9.47;;;;;;;-1.55;100.00;96969.73;3808980;76;43376;-19
2021/01/30 16:23:39;;;;;;;16.67;8.00;;;;;;;-1.60;100.00;96962.65;3808807;76;43705;-21
2021/01/30 16:28:45;;;;;;;19.53;9.60;;;;;;;-1.59;100.00;96965.65;3808001;77;44619;-19
2021/01/30 16:33:52;;;;;;;17.17;8.63;;;;;;;-1.62;100.00;96970.70;3818496;76;44156;-19
2021/01/30 16:38:58;;;;;;;17.20;8.60;;;;;;;-1.61;100.00;96970.20;3818616;76;44205;-19
2021/01/30 16:44:04;;;;;;;17.83;9.23;;;;;;;-1.66;100.00;96969.25;3817763;76;44015;-19
2021/01/30 16:49:10;;;;;;;16.70;8.53;;;;;;;-1.73;100.00;96970.70;3818652;76;44396;-19
2021/01/30 16:54:16;;;;;;;19.17;9.80;;;;;;;-1.77;100.00;96961.34;3807657;76;44262;-19
2021/01/30 16:59:23;;;;;;;17.63;8.83;;;;;;;-1.74;100.00;96962.42;3812548;77;44719;-19
2021/01/30 17:04:29;;;;;;;17.73;8.60;;;;;;;-1.82;100.00;96951.63;3815463;76;43646;-19
2021/01/30 17:09:34;;;;;;;18.10;8.60;;;;;;;-1.82;100.00;96966.98;3815037;76;44604;-19
2021/01/30 17:14:40;;;;;;;16.70;8.67;;;;;;;-1.83;100.00;96971.07;3816894;76;43306;-19
2021/01/30 17:19:46;;;;;;;13.90;7.90;;;;;;;-1.82;100.00;96977.53;3813348;77;43351;-19
2021/01/30 17:24:52;;;;;;;16.07;8.23;;;;;;;-1.90;100.00;96979.45;3812662;76;42794;-19
2021/01/30 17:29:58;;;;;;;16.67;8.97;;;;;;;-1.89;100.00;96978.49;3813590;76;44045;-19
2021/01/30 17:35:05;;;;;;;21.47;10.13;;;;;;;-1.89;100.00;96981.13;3811748;76;44435;-19
2021/01/30 17:40:14;;;;;;;24.47;11.43;;;;;;;-1.88;100.00;96990.73;3813588;76;42943;-19
2021/01/30 17:45:21;;;;;;;23.00;11.57;;;;;;;-1.87;100.00;96997.69;3810940;77;43704;-19
2021/01/30 17:50:28;;;;;;;23.87;11.70;;;;;;;-1.83;100.00;96985.59;3811517;76;43258;-19
2021/01/30 17:55:35;;;;;;;22.23;11.00;;;;;;;-1.91;100.00;96990.96;3808082;77;43746;-19
2021/01/30 18:00:43;;;;;;;23.73;11.87;;;;;;;-1.92;100.00;96985.81;3806215;76;43694;-19
2021/01/30 18:05:50;;;;;;;25.17;12.00;;;;;;;-1.92;100.00;96984.49;3797764;76;44434;-19
2021/01/30 18:10:56;;;;;;;26.70;11.60;;;;;;;-1.96;100.00;96982.58;3807041;76;43475;-19
2021/01/30 18:16:02;;;;;;;24.17;10.83;;;;;;;-1.97;100.00;96990.13;3802443;76;43299;-19
2021/01/30 18:21:09;;;;;;;19.80;9.90;;;;;;;-1.94;100.00;96998.28;3805828;76;43475;-18
2021/01/30 18:26:14;;;;;;;19.43;9.67;;;;;;;-1.99;100.00;96981.48;3805867;77;43447;-19
2021/01/30 18:31:20;;;;;;;21.53;9.30;;;;;;;-1.96;100.00;96981.26;3811884;76;44064;-19
2021/01/30 18:36:27;;;;;;;17.37;8.63;;;;;;;-1.98;100.00;96977.89;3816462;76;44060;-19
2021/01/30 18:41:35;;;;;;;16.47;8.33;;;;;;;-1.95;100.00;96980.30;3810558;76;43714;-19
2021/01/30 18:46:41;;;;;;;17.33;8.70;;;;;;;-1.98;100.00;96979.20;3806512;76;44081;-19
2021/01/30 18:51:47;;;;;;;13.07;7.23;;;;;;;-1.98;100.00;96979.20;3800572;76;43336;-19
2021/01/30 18:56:52;;;;;;;15.23;8.20;;;;;;;-1.96;100.00;96983.90;3817606;76;43994;-19
2021/01/30 19:01:58;;;;;;;16.77;8.50;;;;;;;-1.94;100.00;96996.47;3805878;76;43338;-18
2021/01/30 19:07:04;;;;;;;15.20;8.20;;;;;;;-1.94;100.00;97004.39;3815070;76;44535;-19
2021/01/30 19:12:10;;;;;;;15.27;7.90;;;;;;;-1.94;100.00;97001.75;3818605;77;44035;-19
2021/01/30 19:17:17;;;;;;;13.40;7.73;;;;;;;-1.94;100.00;97006.20;3807340;76;44475;-19
2021/01/30 19:22:24;;;;;;;13.43;6.63;;;;;;;-1.96;100.00;97002.83;3808461;76;43447;-18
2021/01/30 19:27:30;;;;;;;13.10;7.13;;;;;;;-2.03;100.00;96999.82;3806696;76;44749;-19
2021/01/30 19:32:37;;;;;;;12.73;6.87;;;;;;;-1.97;100.00;97005.97;3807187;76;43340;-18
2021/01/30 19:37:43;;;;;;;14.03;6.67;;;;;;;-1.98;100.00;97010.88;3813603;76;44050;-19
2021/01/30 19:42:49;;;;;;;15.07;7.17;;;;;;;-1.98;100.00;97020.12;3814243;76;42986;-18
2021/01/30 19:47:56;;;;;;;12.87;7.07;;;;;;;-2.01;100.00;97021.66;3812085;76;44046;-19
2021/01/30 19:53:03;;;;;;;11.70;6.03;;;;;;;-2.00;100.00;97025.16;3813956;76;43400;-19
2021/01/30 19:58:10;;;;;;;14.17;6.40;;;;;;;-2.01;100.00;97026.94;3812185;76;44490;-20
2021/01/30 20:03:17;;;;;;;12.20;6.70;;;;;;;-2.06;100.00;97031.74;3804932;76;42857;-20
2021/01/30 20:08:23;;;;;;;10.93;5.83;;;;;;;-2.09;100.00;97031.48;3812300;76;43714;-19
2021/01/30 20:13:31;;;;;;;10.20;6.13;;;;;;;-2.12;100.00;97040.97;3812765;76;44008;-19
2021/01/30 20:18:39;;;;;;;11.57;6.27;;;;;;;-2.10;100.00;97040.34;3811137;76;43983;-19
2021/01/30 20:23:46;;;;;;;11.80;5.83;;;;;;;-2.10;100.00;97054.03;3815282;76;43321;-19
2021/01/30 20:28:52;;;;;;;13.20;6.93;;;;;;;-2.05;100.00;97054.05;3802527;76;43286;-20
2021/01/30 20:33:58;;;;;;;12.33;6.60;;;;;;;-2.12;100.00;97046.70;3804314;76;44071;-20
2021/01/30 20:39:05;;;;;;;13.23;6.63;;;;;;;-2.05;100.00;97044.81;3808773;77;44856;-20
2021/01/30 20:44:12;;;;;;;11.17;6.23;;;;;;;-2.02;100.00;97051.19;3816809;76;43677;-19
2021/01/30 20:49:18;;;;;;;11.97;6.80;;;;;;;-2.04;100.00;97046.95;3817633;77;43420;-20
2021/01/30 20:54:25;;;;;;;10.90;6.37;;;;;;;-1.97;100.00;97045.55;3816875;76;43386;-19
2021/01/30 20:59:31;;;;;;;12.30;6.07;;;;;;;-1.97;100.00;97056.11;3817632;76;43350;-19
2021/01/30 21:04:37;;;;;;;10.27;5.63;;;;;;;-2.05;100.00;97057.14;3822932;76;43979;-20
2021/01/30 21:09:43;;;;;;;11.83;5.70;;;;;;;-2.08;100.00;97056.08;3813188;76;44036;-20
2021/01/30 21:14:50;;;;;;;9.53;5.50;;;;;;;-2.08;100.00;97056.08;3815722;76;42133;-20
2021/01/30 21:19:57;;;;;;;10.57;5.57;;;;;;;-2.14;100.00;97046.83;3818533;77;43450;-20
2021/01/30 21:25:04;;;;;;;9.47;5.43;;;;;;;-2.17;100.00;97035.19;3813915;76;43685;-20
2021/01/30 21:30:13;;;;;;;8.77;5.10;;;;;;;-2.20;100.00;97033.63;3815681;77;43531;-20
2021/01/30 21:35:24;;;;;;;11.57;5.87;;;;;;;-2.26;100.00;97036.71;3814286;76;44137;-20
2021/01/30 21:40:33;;;;;;;11.33;6.00;;;;;;;-2.25;100.00;97055.55;3810563;76;44041;-20
2021/01/30 21:45:39;;;;;;;10.77;6.40;;;;;;;-2.27;100.00;97053.48;3815030;77;43487;-20
2021/01/30 21:50:45;;;;;;;11.40;6.40;;;;;;;-2.35;100.00;97066.42;3810357;76;44074;-20
2021/01/30 21:56:02;;;;;;;10.40;6.03;;;;;;;-2.40;100.00;97072.04;3812135;76;43266;-19
2021/01/30 22:01:08;;;;;;;10.97;5.73;;;;;;;-2.40;100.00;97072.04;3808860;76;42899;-20
2021/01/30 22:06:14;;;;;;;8.97;5.27;;;;;;;-2.42;100.00;97075.75;3811012;77;43495;-19
2021/01/30 22:11:20;;;;;;;9.67;5.57;;;;;;;-2.41;100.00;97074.80;3807289;76;44139;-19
2021/01/30 22:16:27;;;;;;;9.53;5.47;;;;;;;-2.46;100.00;97084.34;3795664;78;43697;-19
2021/01/30 22:21:35;;;;;;;9.13;5.17;;;;;;;-2.47;100.00;97081.37;3797608;77;44821;-20
2021/01/30 22:26:41;;;;;;;10.20;5.70;;;;;;;-2.50;100.00;97084.22;3800288;76;43737;-19
2021/01/30 22:31:48;;;;;;;11.80;5.87;;;;;;;-2.46;100.00;97088.79;3799590;76;43700;-20
2021/01/30 22:36:54;;;;;;;9.80;5.73;;;;;;;-2.42;100.00;97082.34;3799357;77;44073;-20
2021/01/30 22:42:01;;;;;;;11.10;5.80;;;;;;;-2.45;100.00;97082.08;3791400;76;42925;-20
2021/01/30 22:47:09;;;;;;;10.30;5.73;;;;;;;-2.46;100.00;97074.28;3790519;78;43963;-20
2021/01/30 22:52:14;;;;;;;10.30;5.50;;;;;;;-2.46;100.00;97081.70;3791500;76;44111;-20
2021/01/30 22:57:22;;;;;;;9.33;5.30;;;;;;;-2.46;100.00;97085.66;3800427;76;43716;-20
2021/01/30 23:02:30;;;;;;;9.07;5.17;;;;;;;-2.46;100.00;97094.06;3790484;76;43335;-20
2021/01/30 23:07:36;;;;;;;7.97;4.80;;;;;;;-2.45;100.00;97099.70;3791759;76;43502;-20
2021/01/30 23:12:44;;;;;;;8.03;5.00;;;;;;;-2.53;100.00;97093.17;3801341;76;44054;-20
2021/01/30 23:17:50;;;;;;;8.33;4.67;;;;;;;-2.52;100.00;97093.55;3818099;77;43936;-16
2021/01/30 23:22:58;;;;;;;10.33;5.40;;;;;;;-2.47;100.00;97098.52;3816111;76;44076;-16
2021/01/30 23:28:07;;;;;;;7.83;5.37;;;;;;;-2.54;100.00;97091.98;3815494;76;43714;-16
2021/01/30 23:33:13;;;;;;;7.60;4.93;;;;;;;-2.48;100.00;97101.61;3817854;77;44055;-16
2021/01/30 23:38:20;;;;;;;8.83;4.90;;;;;;;-2.49;100.00;97091.19;3816284;77;44458;-16